Hlavní strana
METAR-TAF:

METAR-TAF

Letiště :

Utti, Finsko

zeměpisná šířka: 60-54N, zeměpisná délka: 026-56E, výška: 100 m

Aktuální stav počasí

Zpráva byla vytvořena před 23 minutami, v 02:20 UTC
Západojihozápadní vítr 7 kt
Teplota 4°C
Vlhkost vzduchu 93%
Tlak 1015 hPa
Viditelnost 10 km a více
Žádná oblačnost pod 1500 m, nevyskytují se cumulonimby.

METAR: EFUT 190220Z AUTO 25007KT CAVOK 04/03 Q1015

Čas: 05:43 (02:43 UTC)

Předpověď počasí

Zpráva byla vytvořena před 18 hodinami a 16 minutami, v 08:27 UTC
Předpověď platná od 18 v 09 UTC do 18 v 13 UTC
Jižní vítr 8 kt
Viditelnost: 3000 m
Zataženo ve výšce 300 ft
kouřmo
Změna
od 18 v 09 UTC do 18 v 11 UTC
Viditelnost 10 km a více
Dočasný
od 18 v 11 UTC do 18 v 13 UTC
Viditelnost: 4000 m
Oblačno až skoro zataženo ve výšce 800 ft
déšť, mrholení

TAF: EFUT 180827Z 1809/1813 19008KT 3000 BR OVC003 BECMG 1809/1811 9999 NSW TEMPO 1811/1813 4000 RADZ BKN008

Stav a předpovědi počasí z více než 4 000 letišť (zprávy METAR a TAF).

Červené a žluté tečky na mapě představují dostupné meteorologické stanice.

Když kurzor umístíte na tečku, zobrazí se název stanice.

Pak kliknutím zobrazíte stav a předpověď počasí.

Chcete-li změnit mapu, kliknutím na zelené tlačítko se znaménkem +mapu přiblížíte, kliknutím na zelené tlačítko se znaménkem – mapu oddálíte a kliknutím na zelené šipky přejdete na sousední mapy.


METAR-TAF: